<?xml version="1.0" encoding="UTF-8" standalone="no" ?>
<gpx xmlns="http://www.topografix.com/GPX/1/1" xmlns:xsi="http://www.w3.org/2001/XMLSchema-instance" xsi:schemaLocation="http://www.topografix.com/GPX/1/1 http://www.topografix.com/GPX/1/1/gpx.xsd" version="1.1" creator="VisuGPX - https://www.visugpx.com">
  <metadata>
    <name>Randonnée du 04/02/2025 à 09:41</name>
    <desc><![CDATA[Randonnee marche nordique autour de Marcoussi]]></desc>
  </metadata>
  <wpt lat="48.64214" lon="2.22032">
    <ele>133</ele>
    <type><![CDATA[GENERIC]]></type>
  </wpt>
  <wpt lat="48.6425" lon="2.22004">
    <ele>133</ele>
    <type><![CDATA[GENERIC]]></type>
  </wpt>
  <trk>
    <name><![CDATA[Randonnéemarche nordique autour Marcoussi du 04/02/2025 à 09:41]]></name>
    <extensions>
      <line xmlns="http://www.topografix.com/GPX/gpx_style/0/2">
        <color>0000ff</color>
        <width>4</width>
        <dasharray>4</dasharray>
          <extensions>
            <sens>1</sens>
          </extensions>
      </line>
    </extensions>
    <trkseg>
      <trkpt lat="48.6425" lon="2.22004">
        <ele>133</ele>
        <time>2025-02-04T08:41:07.000Z</time>
      </trkpt>
      <trkpt lat="48.64253" lon="2.22006">
        <ele>133</ele>
        <time>2025-02-04T08:41:09.000Z</time>
      </trkpt>
      <trkpt lat="48.64268" lon="2.22023">
        <ele>132</ele>
        <time>2025-02-04T08:44:39.000Z</time>
      </trkpt>
      <trkpt lat="48.64276" lon="2.22053">
        <ele>133</ele>
        <time>2025-02-04T08:44:57.000Z</time>
      </trkpt>
      <trkpt lat="48.64286" lon="2.22083">
        <ele>132</ele>
        <time>2025-02-04T08:45:43.000Z</time>
      </trkpt>
      <trkpt lat="48.64302" lon="2.22109">
        <ele>132</ele>
        <time>2025-02-04T08:46:01.000Z</time>
      </trkpt>
      <trkpt lat="48.64318" lon="2.22133">
        <ele>132</ele>
        <time>2025-02-04T08:46:21.000Z</time>
      </trkpt>
      <trkpt lat="48.64335" lon="2.22158">
        <ele>132</ele>
        <time>2025-02-04T08:46:41.000Z</time>
      </trkpt>
      <trkpt lat="48.64351" lon="2.22184">
        <ele>131</ele>
        <time>2025-02-04T08:46:59.000Z</time>
      </trkpt>
      <trkpt lat="48.64365" lon="2.2221">
        <ele>131</ele>
        <time>2025-02-04T08:47:17.000Z</time>
      </trkpt>
      <trkpt lat="48.64357" lon="2.22238">
        <ele>131</ele>
        <time>2025-02-04T08:47:36.000Z</time>
      </trkpt>
      <trkpt lat="48.64341" lon="2.22264">
        <ele>131</ele>
        <time>2025-02-04T08:47:55.000Z</time>
      </trkpt>
      <trkpt lat="48.64324" lon="2.22286">
        <ele>130</ele>
        <time>2025-02-04T08:48:13.000Z</time>
      </trkpt>
      <trkpt lat="48.64307" lon="2.22309">
        <ele>129</ele>
        <time>2025-02-04T08:48:27.000Z</time>
      </trkpt>
      <trkpt lat="48.64291" lon="2.22334">
        <ele>129</ele>
        <time>2025-02-04T08:48:44.000Z</time>
      </trkpt>
      <trkpt lat="48.64275" lon="2.22359">
        <ele>128</ele>
        <time>2025-02-04T08:49:01.000Z</time>
      </trkpt>
      <trkpt lat="48.64259" lon="2.22382">
        <ele>127</ele>
        <time>2025-02-04T08:49:15.000Z</time>
      </trkpt>
      <trkpt lat="48.64245" lon="2.22412">
        <ele>127</ele>
        <time>2025-02-04T08:49:31.000Z</time>
      </trkpt>
      <trkpt lat="48.64231" lon="2.2244">
        <ele>126</ele>
        <time>2025-02-04T08:49:46.000Z</time>
      </trkpt>
      <trkpt lat="48.64214" lon="2.22463">
        <ele>126</ele>
        <time>2025-02-04T08:50:01.000Z</time>
      </trkpt>
      <trkpt lat="48.64199" lon="2.22489">
        <ele>126</ele>
        <time>2025-02-04T08:50:17.000Z</time>
      </trkpt>
      <trkpt lat="48.64179" lon="2.22506">
        <ele>126</ele>
        <time>2025-02-04T08:50:33.000Z</time>
      </trkpt>
      <trkpt lat="48.64157" lon="2.22505">
        <ele>126</ele>
        <time>2025-02-04T08:50:49.000Z</time>
      </trkpt>
      <trkpt lat="48.64136" lon="2.22521">
        <ele>126</ele>
        <time>2025-02-04T08:51:13.000Z</time>
      </trkpt>
      <trkpt lat="48.64127" lon="2.22549">
        <ele>125</ele>
        <time>2025-02-04T08:51:29.000Z</time>
      </trkpt>
      <trkpt lat="48.64138" lon="2.22578">
        <ele>125</ele>
        <time>2025-02-04T08:51:53.000Z</time>
      </trkpt>
      <trkpt lat="48.64152" lon="2.22603">
        <ele>124</ele>
        <time>2025-02-04T08:52:35.000Z</time>
      </trkpt>
      <trkpt lat="48.64151" lon="2.22636">
        <ele>124</ele>
        <time>2025-02-04T08:52:55.000Z</time>
      </trkpt>
      <trkpt lat="48.64149" lon="2.22672">
        <ele>124</ele>
        <time>2025-02-04T08:53:13.000Z</time>
      </trkpt>
      <trkpt lat="48.64153" lon="2.22707">
        <ele>124</ele>
        <time>2025-02-04T08:53:32.000Z</time>
      </trkpt>
      <trkpt lat="48.64157" lon="2.2274">
        <ele>124</ele>
        <time>2025-02-04T08:53:51.000Z</time>
      </trkpt>
      <trkpt lat="48.64162" lon="2.22774">
        <ele>124</ele>
        <time>2025-02-04T08:54:07.000Z</time>
      </trkpt>
      <trkpt lat="48.64161" lon="2.22808">
        <ele>124</ele>
        <time>2025-02-04T08:54:21.000Z</time>
      </trkpt>
      <trkpt lat="48.64155" lon="2.22841">
        <ele>124</ele>
        <time>2025-02-04T08:54:37.000Z</time>
      </trkpt>
      <trkpt lat="48.64151" lon="2.22875">
        <ele>124</ele>
        <time>2025-02-04T08:54:55.000Z</time>
      </trkpt>
      <trkpt lat="48.64142" lon="2.22906">
        <ele>124</ele>
        <time>2025-02-04T08:55:09.000Z</time>
      </trkpt>
      <trkpt lat="48.6413" lon="2.22935">
        <ele>124</ele>
        <time>2025-02-04T08:55:51.000Z</time>
      </trkpt>
      <trkpt lat="48.64126" lon="2.2297">
        <ele>123</ele>
        <time>2025-02-04T08:56:11.000Z</time>
      </trkpt>
      <trkpt lat="48.64121" lon="2.23004">
        <ele>123</ele>
        <time>2025-02-04T08:56:29.000Z</time>
      </trkpt>
      <trkpt lat="48.64115" lon="2.23038">
        <ele>123</ele>
        <time>2025-02-04T08:56:44.000Z</time>
      </trkpt>
      <trkpt lat="48.64104" lon="2.23069">
        <ele>123</ele>
        <time>2025-02-04T08:57:00.000Z</time>
      </trkpt>
      <trkpt lat="48.64094" lon="2.231">
        <ele>123</ele>
        <time>2025-02-04T08:57:17.000Z</time>
      </trkpt>
      <trkpt lat="48.64084" lon="2.23131">
        <ele>122</ele>
        <time>2025-02-04T08:57:31.000Z</time>
      </trkpt>
      <trkpt lat="48.64075" lon="2.23162">
        <ele>122</ele>
        <time>2025-02-04T08:57:45.000Z</time>
      </trkpt>
      <trkpt lat="48.64065" lon="2.23192">
        <ele>122</ele>
        <time>2025-02-04T08:57:59.000Z</time>
      </trkpt>
      <trkpt lat="48.64057" lon="2.23225">
        <ele>122</ele>
        <time>2025-02-04T08:58:15.000Z</time>
      </trkpt>
      <trkpt lat="48.64053" lon="2.2326">
        <ele>121</ele>
        <time>2025-02-04T08:58:31.000Z</time>
      </trkpt>
      <trkpt lat="48.64057" lon="2.23294">
        <ele>121</ele>
        <time>2025-02-04T08:58:47.000Z</time>
      </trkpt>
      <trkpt lat="48.64069" lon="2.23324">
        <ele>121</ele>
        <time>2025-02-04T08:59:07.000Z</time>
      </trkpt>
      <trkpt lat="48.64085" lon="2.23348">
        <ele>121</ele>
        <time>2025-02-04T08:59:23.000Z</time>
      </trkpt>
      <trkpt lat="48.64091" lon="2.23381">
        <ele>120</ele>
        <time>2025-02-04T08:59:45.000Z</time>
      </trkpt>
      <trkpt lat="48.64083" lon="2.23414">
        <ele>120</ele>
        <time>2025-02-04T09:00:06.000Z</time>
      </trkpt>
      <trkpt lat="48.64067" lon="2.2344">
        <ele>120</ele>
        <time>2025-02-04T09:00:22.000Z</time>
      </trkpt>
      <trkpt lat="48.64051" lon="2.23465">
        <ele>120</ele>
        <time>2025-02-04T09:00:38.000Z</time>
      </trkpt>
      <trkpt lat="48.64036" lon="2.23495">
        <ele>120</ele>
        <time>2025-02-04T09:00:54.000Z</time>
      </trkpt>
      <trkpt lat="48.6402" lon="2.23521">
        <ele>120</ele>
        <time>2025-02-04T09:01:10.000Z</time>
      </trkpt>
      <trkpt lat="48.64003" lon="2.23547">
        <ele>120</ele>
        <time>2025-02-04T09:01:28.000Z</time>
      </trkpt>
      <trkpt lat="48.63992" lon="2.23578">
        <ele>120</ele>
        <time>2025-02-04T09:01:43.000Z</time>
      </trkpt>
      <trkpt lat="48.63981" lon="2.23608">
        <ele>120</ele>
        <time>2025-02-04T09:02:00.000Z</time>
      </trkpt>
      <trkpt lat="48.63968" lon="2.23638">
        <ele>120</ele>
        <time>2025-02-04T09:02:16.000Z</time>
      </trkpt>
      <trkpt lat="48.63956" lon="2.23669">
        <ele>120</ele>
        <time>2025-02-04T09:02:32.000Z</time>
      </trkpt>
      <trkpt lat="48.63943" lon="2.237">
        <ele>119</ele>
        <time>2025-02-04T09:02:47.000Z</time>
      </trkpt>
      <trkpt lat="48.6393" lon="2.23728">
        <ele>119</ele>
        <time>2025-02-04T09:03:01.000Z</time>
      </trkpt>
      <trkpt lat="48.63918" lon="2.23757">
        <ele>119</ele>
        <time>2025-02-04T09:03:16.000Z</time>
      </trkpt>
      <trkpt lat="48.63906" lon="2.23788">
        <ele>118</ele>
        <time>2025-02-04T09:03:32.000Z</time>
      </trkpt>
      <trkpt lat="48.63896" lon="2.23819">
        <ele>118</ele>
        <time>2025-02-04T09:03:47.000Z</time>
      </trkpt>
      <trkpt lat="48.63884" lon="2.23852">
        <ele>118</ele>
        <time>2025-02-04T09:04:04.000Z</time>
      </trkpt>
      <trkpt lat="48.63869" lon="2.2388">
        <ele>117</ele>
        <time>2025-02-04T09:04:22.000Z</time>
      </trkpt>
      <trkpt lat="48.63848" lon="2.23898">
        <ele>117</ele>
        <time>2025-02-04T09:04:42.000Z</time>
      </trkpt>
      <trkpt lat="48.63834" lon="2.23924">
        <ele>117</ele>
        <time>2025-02-04T09:06:31.000Z</time>
      </trkpt>
      <trkpt lat="48.63831" lon="2.23957">
        <ele>116</ele>
        <time>2025-02-04T09:06:49.000Z</time>
      </trkpt>
      <trkpt lat="48.63829" lon="2.23992">
        <ele>116</ele>
        <time>2025-02-04T09:07:09.000Z</time>
      </trkpt>
      <trkpt lat="48.63827" lon="2.24028">
        <ele>116</ele>
        <time>2025-02-04T09:07:27.000Z</time>
      </trkpt>
      <trkpt lat="48.63823" lon="2.24062">
        <ele>116</ele>
        <time>2025-02-04T09:07:43.000Z</time>
      </trkpt>
      <trkpt lat="48.63825" lon="2.24095">
        <ele>116</ele>
        <time>2025-02-04T09:07:57.000Z</time>
      </trkpt>
      <trkpt lat="48.63815" lon="2.24127">
        <ele>116</ele>
        <time>2025-02-04T09:08:15.000Z</time>
      </trkpt>
      <trkpt lat="48.638" lon="2.24156">
        <ele>116</ele>
        <time>2025-02-04T09:08:31.000Z</time>
      </trkpt>
      <trkpt lat="48.63788" lon="2.24186">
        <ele>116</ele>
        <time>2025-02-04T09:09:04.000Z</time>
      </trkpt>
      <trkpt lat="48.63771" lon="2.24207">
        <ele>116</ele>
        <time>2025-02-04T09:09:31.000Z</time>
      </trkpt>
      <trkpt lat="48.63751" lon="2.24223">
        <ele>116</ele>
        <time>2025-02-04T09:09:49.000Z</time>
      </trkpt>
      <trkpt lat="48.63734" lon="2.24243">
        <ele>116</ele>
        <time>2025-02-04T09:10:06.000Z</time>
      </trkpt>
      <trkpt lat="48.6373" lon="2.24276">
        <ele>116</ele>
        <time>2025-02-04T09:10:23.000Z</time>
      </trkpt>
      <trkpt lat="48.63728" lon="2.24312">
        <ele>116</ele>
        <time>2025-02-04T09:10:45.000Z</time>
      </trkpt>
      <trkpt lat="48.63729" lon="2.2435">
        <ele>116</ele>
        <time>2025-02-04T09:11:01.000Z</time>
      </trkpt>
      <trkpt lat="48.63729" lon="2.24384">
        <ele>116</ele>
        <time>2025-02-04T09:11:17.000Z</time>
      </trkpt>
      <trkpt lat="48.63724" lon="2.24419">
        <ele>115</ele>
        <time>2025-02-04T09:12:01.000Z</time>
      </trkpt>
      <trkpt lat="48.6372" lon="2.24455">
        <ele>115</ele>
        <time>2025-02-04T09:12:18.000Z</time>
      </trkpt>
      <trkpt lat="48.63717" lon="2.24491">
        <ele>115</ele>
        <time>2025-02-04T09:12:37.000Z</time>
      </trkpt>
      <trkpt lat="48.63713" lon="2.24527">
        <ele>115</ele>
        <time>2025-02-04T09:12:53.000Z</time>
      </trkpt>
      <trkpt lat="48.63709" lon="2.24564">
        <ele>115</ele>
        <time>2025-02-04T09:13:11.000Z</time>
      </trkpt>
      <trkpt lat="48.63704" lon="2.24598">
        <ele>113</ele>
        <time>2025-02-04T09:14:17.000Z</time>
      </trkpt>
      <trkpt lat="48.63696" lon="2.24632">
        <ele>111</ele>
        <time>2025-02-04T09:16:46.000Z</time>
      </trkpt>
      <trkpt lat="48.63687" lon="2.24665">
        <ele>108</ele>
        <time>2025-02-04T09:17:08.000Z</time>
      </trkpt>
      <trkpt lat="48.63683" lon="2.24698">
        <ele>106</ele>
        <time>2025-02-04T09:17:28.000Z</time>
      </trkpt>
      <trkpt lat="48.63689" lon="2.2473">
        <ele>104</ele>
        <time>2025-02-04T09:17:48.000Z</time>
      </trkpt>
      <trkpt lat="48.63693" lon="2.24766">
        <ele>106</ele>
        <time>2025-02-04T09:18:06.000Z</time>
      </trkpt>
      <trkpt lat="48.63696" lon="2.24803">
        <ele>108</ele>
        <time>2025-02-04T09:18:22.000Z</time>
      </trkpt>
      <trkpt lat="48.63698" lon="2.24837">
        <ele>110</ele>
        <time>2025-02-04T09:18:42.000Z</time>
      </trkpt>
      <trkpt lat="48.63696" lon="2.24872">
        <ele>113</ele>
        <time>2025-02-04T09:18:58.000Z</time>
      </trkpt>
      <trkpt lat="48.63691" lon="2.24906">
        <ele>114</ele>
        <time>2025-02-04T09:19:16.000Z</time>
      </trkpt>
      <trkpt lat="48.63685" lon="2.24941">
        <ele>112</ele>
        <time>2025-02-04T09:19:34.000Z</time>
      </trkpt>
      <trkpt lat="48.63687" lon="2.24975">
        <ele>110</ele>
        <time>2025-02-04T09:19:52.000Z</time>
      </trkpt>
      <trkpt lat="48.63689" lon="2.25009">
        <ele>108</ele>
        <time>2025-02-04T09:20:08.000Z</time>
      </trkpt>
      <trkpt lat="48.6369" lon="2.25046">
        <ele>105</ele>
        <time>2025-02-04T09:20:24.000Z</time>
      </trkpt>
      <trkpt lat="48.63691" lon="2.25082">
        <ele>103</ele>
        <time>2025-02-04T09:20:40.000Z</time>
      </trkpt>
      <trkpt lat="48.63694" lon="2.25116">
        <ele>101</ele>
        <time>2025-02-04T09:20:56.000Z</time>
      </trkpt>
      <trkpt lat="48.63696" lon="2.2515">
        <ele>100</ele>
        <time>2025-02-04T09:21:12.000Z</time>
      </trkpt>
      <trkpt lat="48.63697" lon="2.25185">
        <ele>99</ele>
        <time>2025-02-04T09:21:28.000Z</time>
      </trkpt>
      <trkpt lat="48.63697" lon="2.2522">
        <ele>99</ele>
        <time>2025-02-04T09:21:42.000Z</time>
      </trkpt>
      <trkpt lat="48.63696" lon="2.25257">
        <ele>99</ele>
        <time>2025-02-04T09:22:00.000Z</time>
      </trkpt>
      <trkpt lat="48.63695" lon="2.25294">
        <ele>98</ele>
        <time>2025-02-04T09:22:18.000Z</time>
      </trkpt>
      <trkpt lat="48.63695" lon="2.25331">
        <ele>98</ele>
        <time>2025-02-04T09:22:34.000Z</time>
      </trkpt>
      <trkpt lat="48.63696" lon="2.25367">
        <ele>97</ele>
        <time>2025-02-04T09:22:50.000Z</time>
      </trkpt>
      <trkpt lat="48.63694" lon="2.25404">
        <ele>96</ele>
        <time>2025-02-04T09:23:08.000Z</time>
      </trkpt>
      <trkpt lat="48.63694" lon="2.25439">
        <ele>94</ele>
        <time>2025-02-04T09:23:22.000Z</time>
      </trkpt>
      <trkpt lat="48.63692" lon="2.2547">
        <ele>93</ele>
        <time>2025-02-04T09:23:36.000Z</time>
      </trkpt>
      <trkpt lat="48.63674" lon="2.25484">
        <ele>92</ele>
        <time>2025-02-04T09:24:00.000Z</time>
      </trkpt>
      <trkpt lat="48.63652" lon="2.25477">
        <ele>92</ele>
        <time>2025-02-04T09:24:17.000Z</time>
      </trkpt>
      <trkpt lat="48.6363" lon="2.25471">
        <ele>92</ele>
        <time>2025-02-04T09:24:37.000Z</time>
      </trkpt>
      <trkpt lat="48.63606" lon="2.25468">
        <ele>93</ele>
        <time>2025-02-04T09:24:56.000Z</time>
      </trkpt>
      <trkpt lat="48.63582" lon="2.25463">
        <ele>94</ele>
        <time>2025-02-04T09:25:14.000Z</time>
      </trkpt>
      <trkpt lat="48.63559" lon="2.2546">
        <ele>97</ele>
        <time>2025-02-04T09:25:30.000Z</time>
      </trkpt>
      <trkpt lat="48.63535" lon="2.25455">
        <ele>99</ele>
        <time>2025-02-04T09:25:50.000Z</time>
      </trkpt>
      <trkpt lat="48.63512" lon="2.25448">
        <ele>101</ele>
        <time>2025-02-04T09:26:08.000Z</time>
      </trkpt>
      <trkpt lat="48.6349" lon="2.25435">
        <ele>103</ele>
        <time>2025-02-04T09:26:36.000Z</time>
      </trkpt>
      <trkpt lat="48.63472" lon="2.25417">
        <ele>104</ele>
        <time>2025-02-04T09:27:00.000Z</time>
      </trkpt>
      <trkpt lat="48.63468" lon="2.25384">
        <ele>104</ele>
        <time>2025-02-04T09:27:52.000Z</time>
      </trkpt>
      <trkpt lat="48.63466" lon="2.2535">
        <ele>105</ele>
        <time>2025-02-04T09:28:12.000Z</time>
      </trkpt>
      <trkpt lat="48.6347" lon="2.25317">
        <ele>104</ele>
        <time>2025-02-04T09:28:34.000Z</time>
      </trkpt>
      <trkpt lat="48.63466" lon="2.25284">
        <ele>104</ele>
        <time>2025-02-04T09:28:50.000Z</time>
      </trkpt>
      <trkpt lat="48.63462" lon="2.25248">
        <ele>102</ele>
        <time>2025-02-04T09:29:08.000Z</time>
      </trkpt>
      <trkpt lat="48.63466" lon="2.25213">
        <ele>100</ele>
        <time>2025-02-04T09:29:25.000Z</time>
      </trkpt>
      <trkpt lat="48.63476" lon="2.25183">
        <ele>98</ele>
        <time>2025-02-04T09:29:50.000Z</time>
      </trkpt>
      <trkpt lat="48.63488" lon="2.25154">
        <ele>96</ele>
        <time>2025-02-04T09:30:52.000Z</time>
      </trkpt>
      <trkpt lat="48.63498" lon="2.25123">
        <ele>93</ele>
        <time>2025-02-04T09:31:12.000Z</time>
      </trkpt>
      <trkpt lat="48.63506" lon="2.25088">
        <ele>92</ele>
        <time>2025-02-04T09:31:30.000Z</time>
      </trkpt>
      <trkpt lat="48.63514" lon="2.25056">
        <ele>90</ele>
        <time>2025-02-04T09:31:48.000Z</time>
      </trkpt>
      <trkpt lat="48.63519" lon="2.25022">
        <ele>89</ele>
        <time>2025-02-04T09:32:06.000Z</time>
      </trkpt>
      <trkpt lat="48.63524" lon="2.24988">
        <ele>87</ele>
        <time>2025-02-04T09:32:24.000Z</time>
      </trkpt>
      <trkpt lat="48.63534" lon="2.24956">
        <ele>85</ele>
        <time>2025-02-04T09:32:40.000Z</time>
      </trkpt>
      <trkpt lat="48.63546" lon="2.24928">
        <ele>83</ele>
        <time>2025-02-04T09:32:54.000Z</time>
      </trkpt>
      <trkpt lat="48.6356" lon="2.249">
        <ele>83</ele>
        <time>2025-02-04T09:33:10.000Z</time>
      </trkpt>
      <trkpt lat="48.63575" lon="2.24872">
        <ele>85</ele>
        <time>2025-02-04T09:33:26.000Z</time>
      </trkpt>
      <trkpt lat="48.6359" lon="2.24843">
        <ele>89</ele>
        <time>2025-02-04T09:33:44.000Z</time>
      </trkpt>
      <trkpt lat="48.63602" lon="2.24815">
        <ele>93</ele>
        <time>2025-02-04T09:33:58.000Z</time>
      </trkpt>
      <trkpt lat="48.63605" lon="2.24782">
        <ele>96</ele>
        <time>2025-02-04T09:34:14.000Z</time>
      </trkpt>
      <trkpt lat="48.63604" lon="2.24748">
        <ele>99</ele>
        <time>2025-02-04T09:34:32.000Z</time>
      </trkpt>
      <trkpt lat="48.63598" lon="2.24716">
        <ele>103</ele>
        <time>2025-02-04T09:34:50.000Z</time>
      </trkpt>
      <trkpt lat="48.63589" lon="2.24684">
        <ele>106</ele>
        <time>2025-02-04T09:35:06.000Z</time>
      </trkpt>
      <trkpt lat="48.63579" lon="2.24653">
        <ele>109</ele>
        <time>2025-02-04T09:35:26.000Z</time>
      </trkpt>
      <trkpt lat="48.63574" lon="2.2462">
        <ele>112</ele>
        <time>2025-02-04T09:35:47.000Z</time>
      </trkpt>
      <trkpt lat="48.63569" lon="2.24586">
        <ele>114</ele>
        <time>2025-02-04T09:36:06.000Z</time>
      </trkpt>
      <trkpt lat="48.63566" lon="2.24551">
        <ele>116</ele>
        <time>2025-02-04T09:36:24.000Z</time>
      </trkpt>
      <trkpt lat="48.63567" lon="2.24515">
        <ele>118</ele>
        <time>2025-02-04T09:41:07.000Z</time>
      </trkpt>
      <trkpt lat="48.63559" lon="2.24483">
        <ele>119</ele>
        <time>2025-02-04T09:41:31.000Z</time>
      </trkpt>
      <trkpt lat="48.63543" lon="2.2446">
        <ele>120</ele>
        <time>2025-02-04T09:41:57.000Z</time>
      </trkpt>
      <trkpt lat="48.63523" lon="2.24441">
        <ele>121</ele>
        <time>2025-02-04T09:42:15.000Z</time>
      </trkpt>
      <trkpt lat="48.63502" lon="2.24427">
        <ele>123</ele>
        <time>2025-02-04T09:42:33.000Z</time>
      </trkpt>
      <trkpt lat="48.63479" lon="2.24423">
        <ele>124</ele>
        <time>2025-02-04T09:42:53.000Z</time>
      </trkpt>
      <trkpt lat="48.63456" lon="2.24417">
        <ele>125</ele>
        <time>2025-02-04T09:43:11.000Z</time>
      </trkpt>
      <trkpt lat="48.63435" lon="2.24403">
        <ele>126</ele>
        <time>2025-02-04T09:43:31.000Z</time>
      </trkpt>
      <trkpt lat="48.63413" lon="2.24392">
        <ele>128</ele>
        <time>2025-02-04T09:43:48.000Z</time>
      </trkpt>
      <trkpt lat="48.6339" lon="2.24384">
        <ele>129</ele>
        <time>2025-02-04T09:44:07.000Z</time>
      </trkpt>
      <trkpt lat="48.63367" lon="2.24375">
        <ele>131</ele>
        <time>2025-02-04T09:44:25.000Z</time>
      </trkpt>
      <trkpt lat="48.63345" lon="2.24367">
        <ele>132</ele>
        <time>2025-02-04T09:44:43.000Z</time>
      </trkpt>
      <trkpt lat="48.63323" lon="2.2436">
        <ele>133</ele>
        <time>2025-02-04T09:45:05.000Z</time>
      </trkpt>
      <trkpt lat="48.6331" lon="2.24335">
        <ele>133</ele>
        <time>2025-02-04T09:45:23.000Z</time>
      </trkpt>
      <trkpt lat="48.63306" lon="2.24302">
        <ele>134</ele>
        <time>2025-02-04T09:45:41.000Z</time>
      </trkpt>
      <trkpt lat="48.63301" lon="2.24268">
        <ele>134</ele>
        <time>2025-02-04T09:45:59.000Z</time>
      </trkpt>
      <trkpt lat="48.63297" lon="2.24233">
        <ele>135</ele>
        <time>2025-02-04T09:46:17.000Z</time>
      </trkpt>
      <trkpt lat="48.63293" lon="2.24196">
        <ele>135</ele>
        <time>2025-02-04T09:46:37.000Z</time>
      </trkpt>
      <trkpt lat="48.63287" lon="2.24163">
        <ele>136</ele>
        <time>2025-02-04T09:46:53.000Z</time>
      </trkpt>
      <trkpt lat="48.6328" lon="2.2413">
        <ele>136</ele>
        <time>2025-02-04T09:47:11.000Z</time>
      </trkpt>
      <trkpt lat="48.63274" lon="2.24097">
        <ele>137</ele>
        <time>2025-02-04T09:47:27.000Z</time>
      </trkpt>
      <trkpt lat="48.63263" lon="2.24068">
        <ele>137</ele>
        <time>2025-02-04T09:47:45.000Z</time>
      </trkpt>
      <trkpt lat="48.63242" lon="2.2406">
        <ele>138</ele>
        <time>2025-02-04T09:48:07.000Z</time>
      </trkpt>
      <trkpt lat="48.63219" lon="2.24058">
        <ele>139</ele>
        <time>2025-02-04T09:48:27.000Z</time>
      </trkpt>
      <trkpt lat="48.63197" lon="2.24054">
        <ele>140</ele>
        <time>2025-02-04T09:48:51.000Z</time>
      </trkpt>
      <trkpt lat="48.63176" lon="2.24038">
        <ele>141</ele>
        <time>2025-02-04T09:49:17.000Z</time>
      </trkpt>
      <trkpt lat="48.6316" lon="2.24014">
        <ele>142</ele>
        <time>2025-02-04T09:49:33.000Z</time>
      </trkpt>
      <trkpt lat="48.63153" lon="2.23981">
        <ele>143</ele>
        <time>2025-02-04T09:49:51.000Z</time>
      </trkpt>
      <trkpt lat="48.63146" lon="2.23948">
        <ele>144</ele>
        <time>2025-02-04T09:50:09.000Z</time>
      </trkpt>
      <trkpt lat="48.63131" lon="2.23923">
        <ele>144</ele>
        <time>2025-02-04T09:50:25.000Z</time>
      </trkpt>
      <trkpt lat="48.6311" lon="2.23916">
        <ele>145</ele>
        <time>2025-02-04T09:50:49.000Z</time>
      </trkpt>
      <trkpt lat="48.63088" lon="2.23919">
        <ele>145</ele>
        <time>2025-02-04T09:51:06.000Z</time>
      </trkpt>
      <trkpt lat="48.63066" lon="2.23923">
        <ele>145</ele>
        <time>2025-02-04T09:51:28.000Z</time>
      </trkpt>
      <trkpt lat="48.63046" lon="2.23939">
        <ele>145</ele>
        <time>2025-02-04T09:51:56.000Z</time>
      </trkpt>
      <trkpt lat="48.63034" lon="2.23967">
        <ele>146</ele>
        <time>2025-02-04T09:52:11.000Z</time>
      </trkpt>
      <trkpt lat="48.63028" lon="2.23998">
        <ele>148</ele>
        <time>2025-02-04T09:52:32.000Z</time>
      </trkpt>
      <trkpt lat="48.6301" lon="2.24013">
        <ele>151</ele>
        <time>2025-02-04T09:53:23.000Z</time>
      </trkpt>
      <trkpt lat="48.62988" lon="2.24011">
        <ele>154</ele>
        <time>2025-02-04T09:53:53.000Z</time>
      </trkpt>
      <trkpt lat="48.62966" lon="2.24012">
        <ele>160</ele>
        <time>2025-02-04T09:54:24.000Z</time>
      </trkpt>
      <trkpt lat="48.62944" lon="2.24005">
        <ele>165</ele>
        <time>2025-02-04T09:54:58.000Z</time>
      </trkpt>
      <trkpt lat="48.62922" lon="2.24">
        <ele>171</ele>
        <time>2025-02-04T09:55:36.000Z</time>
      </trkpt>
      <trkpt lat="48.629" lon="2.24">
        <ele>175</ele>
        <time>2025-02-04T09:56:04.000Z</time>
      </trkpt>
      <trkpt lat="48.62877" lon="2.23998">
        <ele>176</ele>
        <time>2025-02-04T09:56:54.000Z</time>
      </trkpt>
      <trkpt lat="48.62861" lon="2.23999">
        <ele>176</ele>
        <time>2025-02-04T09:59:18.000Z</time>
      </trkpt>
      <trkpt lat="48.62877" lon="2.23995">
        <ele>176</ele>
        <time>2025-02-04T10:06:49.000Z</time>
      </trkpt>
      <trkpt lat="48.62893" lon="2.23976">
        <ele>176</ele>
        <time>2025-02-04T10:07:27.000Z</time>
      </trkpt>
      <trkpt lat="48.62898" lon="2.23944">
        <ele>176</ele>
        <time>2025-02-04T10:07:53.000Z</time>
      </trkpt>
      <trkpt lat="48.62901" lon="2.23908">
        <ele>174</ele>
        <time>2025-02-04T10:08:16.000Z</time>
      </trkpt>
      <trkpt lat="48.62903" lon="2.23874">
        <ele>173</ele>
        <time>2025-02-04T10:08:39.000Z</time>
      </trkpt>
      <trkpt lat="48.62911" lon="2.23839">
        <ele>171</ele>
        <time>2025-02-04T10:09:01.000Z</time>
      </trkpt>
      <trkpt lat="48.62918" lon="2.23804">
        <ele>170</ele>
        <time>2025-02-04T10:09:23.000Z</time>
      </trkpt>
      <trkpt lat="48.62917" lon="2.23768">
        <ele>170</ele>
        <time>2025-02-04T10:09:44.000Z</time>
      </trkpt>
      <trkpt lat="48.62911" lon="2.23735">
        <ele>170</ele>
        <time>2025-02-04T10:10:04.000Z</time>
      </trkpt>
      <trkpt lat="48.62911" lon="2.23701">
        <ele>165</ele>
        <time>2025-02-04T10:10:20.000Z</time>
      </trkpt>
      <trkpt lat="48.6291" lon="2.23665">
        <ele>161</ele>
        <time>2025-02-04T10:10:40.000Z</time>
      </trkpt>
      <trkpt lat="48.62916" lon="2.2363">
        <ele>155</ele>
        <time>2025-02-04T10:11:14.000Z</time>
      </trkpt>
      <trkpt lat="48.62917" lon="2.23597">
        <ele>149</ele>
        <time>2025-02-04T10:11:38.000Z</time>
      </trkpt>
      <trkpt lat="48.62902" lon="2.23569">
        <ele>151</ele>
        <time>2025-02-04T10:12:00.000Z</time>
      </trkpt>
      <trkpt lat="48.62882" lon="2.23553">
        <ele>154</ele>
        <time>2025-02-04T10:12:22.000Z</time>
      </trkpt>
      <trkpt lat="48.62859" lon="2.23546">
        <ele>159</ele>
        <time>2025-02-04T10:12:40.000Z</time>
      </trkpt>
      <trkpt lat="48.62835" lon="2.2354">
        <ele>167</ele>
        <time>2025-02-04T10:13:04.000Z</time>
      </trkpt>
      <trkpt lat="48.62816" lon="2.23522">
        <ele>172</ele>
        <time>2025-02-04T10:13:28.000Z</time>
      </trkpt>
      <trkpt lat="48.62795" lon="2.23518">
        <ele>176</ele>
        <time>2025-02-04T10:13:46.000Z</time>
      </trkpt>
      <trkpt lat="48.6278" lon="2.23541">
        <ele>181</ele>
        <time>2025-02-04T10:14:10.000Z</time>
      </trkpt>
      <trkpt lat="48.62768" lon="2.2357">
        <ele>184</ele>
        <time>2025-02-04T10:14:36.000Z</time>
      </trkpt>
      <trkpt lat="48.62759" lon="2.23601">
        <ele>187</ele>
        <time>2025-02-04T10:15:30.000Z</time>
      </trkpt>
      <trkpt lat="48.62746" lon="2.2363">
        <ele>189</ele>
        <time>2025-02-04T10:15:57.000Z</time>
      </trkpt>
      <trkpt lat="48.62728" lon="2.23652">
        <ele>190</ele>
        <time>2025-02-04T10:16:21.000Z</time>
      </trkpt>
      <trkpt lat="48.62712" lon="2.23676">
        <ele>190</ele>
        <time>2025-02-04T10:16:39.000Z</time>
      </trkpt>
      <trkpt lat="48.62701" lon="2.23701">
        <ele>190</ele>
        <time>2025-02-04T10:16:57.000Z</time>
      </trkpt>
      <trkpt lat="48.62712" lon="2.23715">
        <ele>189</ele>
        <time>2025-02-04T10:18:07.000Z</time>
      </trkpt>
      <trkpt lat="48.62696" lon="2.23705">
        <ele>188</ele>
        <time>2025-02-04T10:20:25.000Z</time>
      </trkpt>
      <trkpt lat="48.6268" lon="2.23682">
        <ele>187</ele>
        <time>2025-02-04T10:20:53.000Z</time>
      </trkpt>
      <trkpt lat="48.62672" lon="2.2365">
        <ele>185</ele>
        <time>2025-02-04T10:21:21.000Z</time>
      </trkpt>
      <trkpt lat="48.62669" lon="2.23617">
        <ele>184</ele>
        <time>2025-02-04T10:21:40.000Z</time>
      </trkpt>
      <trkpt lat="48.62667" lon="2.2358">
        <ele>183</ele>
        <time>2025-02-04T10:22:03.000Z</time>
      </trkpt>
      <trkpt lat="48.62669" lon="2.23543">
        <ele>182</ele>
        <time>2025-02-04T10:22:23.000Z</time>
      </trkpt>
      <trkpt lat="48.62673" lon="2.23507">
        <ele>181</ele>
        <time>2025-02-04T10:22:42.000Z</time>
      </trkpt>
      <trkpt lat="48.62675" lon="2.23472">
        <ele>181</ele>
        <time>2025-02-04T10:23:02.000Z</time>
      </trkpt>
      <trkpt lat="48.62679" lon="2.23439">
        <ele>180</ele>
        <time>2025-02-04T10:23:29.000Z</time>
      </trkpt>
      <trkpt lat="48.62683" lon="2.23406">
        <ele>180</ele>
        <time>2025-02-04T10:23:51.000Z</time>
      </trkpt>
      <trkpt lat="48.62691" lon="2.23373">
        <ele>179</ele>
        <time>2025-02-04T10:24:15.000Z</time>
      </trkpt>
      <trkpt lat="48.62698" lon="2.23338">
        <ele>179</ele>
        <time>2025-02-04T10:24:41.000Z</time>
      </trkpt>
      <trkpt lat="48.62707" lon="2.23307">
        <ele>178</ele>
        <time>2025-02-04T10:25:09.000Z</time>
      </trkpt>
      <trkpt lat="48.62715" lon="2.23276">
        <ele>177</ele>
        <time>2025-02-04T10:25:31.000Z</time>
      </trkpt>
      <trkpt lat="48.62715" lon="2.23241">
        <ele>177</ele>
        <time>2025-02-04T10:25:49.000Z</time>
      </trkpt>
      <trkpt lat="48.62717" lon="2.23208">
        <ele>177</ele>
        <time>2025-02-04T10:26:09.000Z</time>
      </trkpt>
      <trkpt lat="48.62726" lon="2.23176">
        <ele>178</ele>
        <time>2025-02-04T10:26:34.000Z</time>
      </trkpt>
      <trkpt lat="48.62727" lon="2.23142">
        <ele>178</ele>
        <time>2025-02-04T10:26:57.000Z</time>
      </trkpt>
      <trkpt lat="48.62728" lon="2.23109">
        <ele>180</ele>
        <time>2025-02-04T10:27:17.000Z</time>
      </trkpt>
      <trkpt lat="48.62716" lon="2.23083">
        <ele>181</ele>
        <time>2025-02-04T10:27:59.000Z</time>
      </trkpt>
      <trkpt lat="48.62695" lon="2.23072">
        <ele>178</ele>
        <time>2025-02-04T10:28:27.000Z</time>
      </trkpt>
      <trkpt lat="48.62674" lon="2.23061">
        <ele>172</ele>
        <time>2025-02-04T10:28:52.000Z</time>
      </trkpt>
      <trkpt lat="48.62653" lon="2.23054">
        <ele>161</ele>
        <time>2025-02-04T10:29:18.000Z</time>
      </trkpt>
      <trkpt lat="48.6263" lon="2.23045">
        <ele>148</ele>
        <time>2025-02-04T10:29:42.000Z</time>
      </trkpt>
      <trkpt lat="48.62608" lon="2.23038">
        <ele>137</ele>
        <time>2025-02-04T10:30:02.000Z</time>
      </trkpt>
      <trkpt lat="48.62586" lon="2.23028">
        <ele>127</ele>
        <time>2025-02-04T10:30:19.000Z</time>
      </trkpt>
      <trkpt lat="48.62564" lon="2.23017">
        <ele>122</ele>
        <time>2025-02-04T10:30:42.000Z</time>
      </trkpt>
      <trkpt lat="48.62542" lon="2.23004">
        <ele>117</ele>
        <time>2025-02-04T10:31:04.000Z</time>
      </trkpt>
      <trkpt lat="48.62523" lon="2.22985">
        <ele>113</ele>
        <time>2025-02-04T10:31:26.000Z</time>
      </trkpt>
      <trkpt lat="48.62512" lon="2.22958">
        <ele>110</ele>
        <time>2025-02-04T10:32:35.000Z</time>
      </trkpt>
      <trkpt lat="48.62516" lon="2.22926">
        <ele>108</ele>
        <time>2025-02-04T10:34:13.000Z</time>
      </trkpt>
      <trkpt lat="48.62528" lon="2.22896">
        <ele>106</ele>
        <time>2025-02-04T10:34:33.000Z</time>
      </trkpt>
      <trkpt lat="48.62548" lon="2.22876">
        <ele>109</ele>
        <time>2025-02-04T10:35:07.000Z</time>
      </trkpt>
      <trkpt lat="48.62569" lon="2.22862">
        <ele>116</ele>
        <time>2025-02-04T10:35:21.000Z</time>
      </trkpt>
      <trkpt lat="48.6259" lon="2.22848">
        <ele>129</ele>
        <time>2025-02-04T10:35:37.000Z</time>
      </trkpt>
      <trkpt lat="48.6261" lon="2.22832">
        <ele>143</ele>
        <time>2025-02-04T10:35:50.000Z</time>
      </trkpt>
      <trkpt lat="48.62631" lon="2.22816">
        <ele>155</ele>
        <time>2025-02-04T10:36:05.000Z</time>
      </trkpt>
      <trkpt lat="48.62653" lon="2.22804">
        <ele>166</ele>
        <time>2025-02-04T10:36:21.000Z</time>
      </trkpt>
      <trkpt lat="48.62673" lon="2.2279">
        <ele>172</ele>
        <time>2025-02-04T10:36:37.000Z</time>
      </trkpt>
      <trkpt lat="48.62694" lon="2.22774">
        <ele>178</ele>
        <time>2025-02-04T10:36:53.000Z</time>
      </trkpt>
      <trkpt lat="48.62713" lon="2.22759">
        <ele>182</ele>
        <time>2025-02-04T10:37:07.000Z</time>
      </trkpt>
      <trkpt lat="48.62733" lon="2.22744">
        <ele>186</ele>
        <time>2025-02-04T10:37:21.000Z</time>
      </trkpt>
      <trkpt lat="48.62753" lon="2.22729">
        <ele>188</ele>
        <time>2025-02-04T10:37:37.000Z</time>
      </trkpt>
      <trkpt lat="48.62773" lon="2.22708">
        <ele>190</ele>
        <time>2025-02-04T10:38:09.000Z</time>
      </trkpt>
      <trkpt lat="48.62789" lon="2.22684">
        <ele>192</ele>
        <time>2025-02-04T10:38:23.000Z</time>
      </trkpt>
      <trkpt lat="48.62806" lon="2.22658">
        <ele>193</ele>
        <time>2025-02-04T10:38:39.000Z</time>
      </trkpt>
      <trkpt lat="48.62822" lon="2.2263">
        <ele>194</ele>
        <time>2025-02-04T10:38:56.000Z</time>
      </trkpt>
      <trkpt lat="48.62838" lon="2.22605">
        <ele>195</ele>
        <time>2025-02-04T10:39:10.000Z</time>
      </trkpt>
      <trkpt lat="48.62854" lon="2.22578">
        <ele>196</ele>
        <time>2025-02-04T10:39:26.000Z</time>
      </trkpt>
      <trkpt lat="48.62866" lon="2.22548">
        <ele>196</ele>
        <time>2025-02-04T10:39:42.000Z</time>
      </trkpt>
      <trkpt lat="48.62878" lon="2.22516">
        <ele>197</ele>
        <time>2025-02-04T10:39:58.000Z</time>
      </trkpt>
      <trkpt lat="48.62889" lon="2.22485">
        <ele>197</ele>
        <time>2025-02-04T10:40:14.000Z</time>
      </trkpt>
      <trkpt lat="48.62898" lon="2.22452">
        <ele>197</ele>
        <time>2025-02-04T10:40:30.000Z</time>
      </trkpt>
      <trkpt lat="48.62907" lon="2.2242">
        <ele>197</ele>
        <time>2025-02-04T10:40:46.000Z</time>
      </trkpt>
      <trkpt lat="48.62918" lon="2.22388">
        <ele>198</ele>
        <time>2025-02-04T10:41:02.000Z</time>
      </trkpt>
      <trkpt lat="48.62927" lon="2.22354">
        <ele>198</ele>
        <time>2025-02-04T10:41:18.000Z</time>
      </trkpt>
      <trkpt lat="48.62934" lon="2.2232">
        <ele>197</ele>
        <time>2025-02-04T10:41:33.000Z</time>
      </trkpt>
      <trkpt lat="48.6294" lon="2.22287">
        <ele>196</ele>
        <time>2025-02-04T10:41:50.000Z</time>
      </trkpt>
      <trkpt lat="48.62946" lon="2.22251">
        <ele>195</ele>
        <time>2025-02-04T10:42:06.000Z</time>
      </trkpt>
      <trkpt lat="48.62953" lon="2.22217">
        <ele>194</ele>
        <time>2025-02-04T10:42:22.000Z</time>
      </trkpt>
      <trkpt lat="48.62959" lon="2.22183">
        <ele>193</ele>
        <time>2025-02-04T10:42:40.000Z</time>
      </trkpt>
      <trkpt lat="48.62966" lon="2.22147">
        <ele>192</ele>
        <time>2025-02-04T10:43:20.000Z</time>
      </trkpt>
      <trkpt lat="48.62974" lon="2.22114">
        <ele>192</ele>
        <time>2025-02-04T10:43:48.000Z</time>
      </trkpt>
      <trkpt lat="48.6298" lon="2.22081">
        <ele>192</ele>
        <time>2025-02-04T10:44:07.000Z</time>
      </trkpt>
      <trkpt lat="48.62985" lon="2.22047">
        <ele>192</ele>
        <time>2025-02-04T10:44:27.000Z</time>
      </trkpt>
      <trkpt lat="48.6299" lon="2.22014">
        <ele>192</ele>
        <time>2025-02-04T10:44:43.000Z</time>
      </trkpt>
      <trkpt lat="48.62995" lon="2.21981">
        <ele>192</ele>
        <time>2025-02-04T10:44:59.000Z</time>
      </trkpt>
      <trkpt lat="48.62997" lon="2.21947">
        <ele>191</ele>
        <time>2025-02-04T10:45:15.000Z</time>
      </trkpt>
      <trkpt lat="48.63001" lon="2.21912">
        <ele>191</ele>
        <time>2025-02-04T10:45:33.000Z</time>
      </trkpt>
      <trkpt lat="48.63005" lon="2.21877">
        <ele>190</ele>
        <time>2025-02-04T10:45:49.000Z</time>
      </trkpt>
      <trkpt lat="48.63009" lon="2.21842">
        <ele>190</ele>
        <time>2025-02-04T10:46:05.000Z</time>
      </trkpt>
      <trkpt lat="48.63012" lon="2.21807">
        <ele>191</ele>
        <time>2025-02-04T10:46:23.000Z</time>
      </trkpt>
      <trkpt lat="48.63015" lon="2.21772">
        <ele>192</ele>
        <time>2025-02-04T10:46:39.000Z</time>
      </trkpt>
      <trkpt lat="48.63019" lon="2.21736">
        <ele>192</ele>
        <time>2025-02-04T10:46:56.000Z</time>
      </trkpt>
      <trkpt lat="48.63023" lon="2.21699">
        <ele>192</ele>
        <time>2025-02-04T10:47:15.000Z</time>
      </trkpt>
      <trkpt lat="48.63026" lon="2.21664">
        <ele>192</ele>
        <time>2025-02-04T10:47:31.000Z</time>
      </trkpt>
      <trkpt lat="48.63032" lon="2.21628">
        <ele>192</ele>
        <time>2025-02-04T10:47:49.000Z</time>
      </trkpt>
      <trkpt lat="48.63039" lon="2.21594">
        <ele>192</ele>
        <time>2025-02-04T10:48:07.000Z</time>
      </trkpt>
      <trkpt lat="48.63045" lon="2.21559">
        <ele>193</ele>
        <time>2025-02-04T10:48:25.000Z</time>
      </trkpt>
      <trkpt lat="48.6305" lon="2.21523">
        <ele>194</ele>
        <time>2025-02-04T10:48:43.000Z</time>
      </trkpt>
      <trkpt lat="48.63056" lon="2.21488">
        <ele>195</ele>
        <time>2025-02-04T10:49:01.000Z</time>
      </trkpt>
      <trkpt lat="48.63063" lon="2.21453">
        <ele>196</ele>
        <time>2025-02-04T10:49:19.000Z</time>
      </trkpt>
      <trkpt lat="48.63066" lon="2.21418">
        <ele>196</ele>
        <time>2025-02-04T10:49:35.000Z</time>
      </trkpt>
      <trkpt lat="48.63069" lon="2.21381">
        <ele>197</ele>
        <time>2025-02-04T10:49:53.000Z</time>
      </trkpt>
      <trkpt lat="48.63072" lon="2.21346">
        <ele>197</ele>
        <time>2025-02-04T10:50:12.000Z</time>
      </trkpt>
      <trkpt lat="48.63076" lon="2.21313">
        <ele>197</ele>
        <time>2025-02-04T10:50:29.000Z</time>
      </trkpt>
      <trkpt lat="48.63078" lon="2.21278">
        <ele>197</ele>
        <time>2025-02-04T10:50:49.000Z</time>
      </trkpt>
      <trkpt lat="48.63079" lon="2.21242">
        <ele>197</ele>
        <time>2025-02-04T10:51:07.000Z</time>
      </trkpt>
      <trkpt lat="48.63078" lon="2.21207">
        <ele>197</ele>
        <time>2025-02-04T10:51:27.000Z</time>
      </trkpt>
      <trkpt lat="48.63077" lon="2.21171">
        <ele>196</ele>
        <time>2025-02-04T10:51:47.000Z</time>
      </trkpt>
      <trkpt lat="48.63076" lon="2.21136">
        <ele>195</ele>
        <time>2025-02-04T10:52:07.000Z</time>
      </trkpt>
      <trkpt lat="48.63078" lon="2.21102">
        <ele>194</ele>
        <time>2025-02-04T10:52:24.000Z</time>
      </trkpt>
      <trkpt lat="48.63081" lon="2.21068">
        <ele>192</ele>
        <time>2025-02-04T10:52:43.000Z</time>
      </trkpt>
      <trkpt lat="48.63097" lon="2.21043">
        <ele>191</ele>
        <time>2025-02-04T10:53:08.000Z</time>
      </trkpt>
      <trkpt lat="48.63111" lon="2.21016">
        <ele>190</ele>
        <time>2025-02-04T10:53:33.000Z</time>
      </trkpt>
      <trkpt lat="48.63127" lon="2.20989">
        <ele>189</ele>
        <time>2025-02-04T10:53:53.000Z</time>
      </trkpt>
      <trkpt lat="48.63146" lon="2.20968">
        <ele>188</ele>
        <time>2025-02-04T10:54:13.000Z</time>
      </trkpt>
      <trkpt lat="48.63167" lon="2.2096">
        <ele>186</ele>
        <time>2025-02-04T10:54:52.000Z</time>
      </trkpt>
      <trkpt lat="48.63179" lon="2.20932">
        <ele>185</ele>
        <time>2025-02-04T10:55:20.000Z</time>
      </trkpt>
      <trkpt lat="48.63194" lon="2.20905">
        <ele>184</ele>
        <time>2025-02-04T10:55:42.000Z</time>
      </trkpt>
      <trkpt lat="48.6321" lon="2.20879">
        <ele>183</ele>
        <time>2025-02-04T10:56:00.000Z</time>
      </trkpt>
      <trkpt lat="48.63226" lon="2.20856">
        <ele>182</ele>
        <time>2025-02-04T10:56:20.000Z</time>
      </trkpt>
      <trkpt lat="48.63243" lon="2.20833">
        <ele>180</ele>
        <time>2025-02-04T10:56:36.000Z</time>
      </trkpt>
      <trkpt lat="48.63259" lon="2.20808">
        <ele>179</ele>
        <time>2025-02-04T10:56:54.000Z</time>
      </trkpt>
      <trkpt lat="48.63276" lon="2.20783">
        <ele>177</ele>
        <time>2025-02-04T10:57:14.000Z</time>
      </trkpt>
      <trkpt lat="48.63294" lon="2.20759">
        <ele>175</ele>
        <time>2025-02-04T10:57:34.000Z</time>
      </trkpt>
      <trkpt lat="48.63313" lon="2.20738">
        <ele>174</ele>
        <time>2025-02-04T10:57:50.000Z</time>
      </trkpt>
      <trkpt lat="48.63332" lon="2.20718">
        <ele>173</ele>
        <time>2025-02-04T10:58:10.000Z</time>
      </trkpt>
      <trkpt lat="48.63354" lon="2.20717">
        <ele>171</ele>
        <time>2025-02-04T10:58:34.000Z</time>
      </trkpt>
      <trkpt lat="48.63376" lon="2.20727">
        <ele>170</ele>
        <time>2025-02-04T10:58:48.000Z</time>
      </trkpt>
      <trkpt lat="48.63399" lon="2.2074">
        <ele>168</ele>
        <time>2025-02-04T10:59:04.000Z</time>
      </trkpt>
      <trkpt lat="48.63421" lon="2.20753">
        <ele>167</ele>
        <time>2025-02-04T10:59:26.000Z</time>
      </trkpt>
      <trkpt lat="48.63444" lon="2.20762">
        <ele>165</ele>
        <time>2025-02-04T10:59:46.000Z</time>
      </trkpt>
      <trkpt lat="48.63464" lon="2.2078">
        <ele>163</ele>
        <time>2025-02-04T11:00:04.000Z</time>
      </trkpt>
      <trkpt lat="48.63483" lon="2.20802">
        <ele>161</ele>
        <time>2025-02-04T11:00:20.000Z</time>
      </trkpt>
      <trkpt lat="48.635" lon="2.20827">
        <ele>159</ele>
        <time>2025-02-04T11:00:40.000Z</time>
      </trkpt>
      <trkpt lat="48.63514" lon="2.20854">
        <ele>156</ele>
        <time>2025-02-04T11:00:58.000Z</time>
      </trkpt>
      <trkpt lat="48.63529" lon="2.20884">
        <ele>155</ele>
        <time>2025-02-04T11:01:18.000Z</time>
      </trkpt>
      <trkpt lat="48.63539" lon="2.20915">
        <ele>154</ele>
        <time>2025-02-04T11:01:36.000Z</time>
      </trkpt>
      <trkpt lat="48.63541" lon="2.20951">
        <ele>153</ele>
        <time>2025-02-04T11:01:52.000Z</time>
      </trkpt>
      <trkpt lat="48.63537" lon="2.20985">
        <ele>152</ele>
        <time>2025-02-04T11:02:10.000Z</time>
      </trkpt>
      <trkpt lat="48.63532" lon="2.21019">
        <ele>151</ele>
        <time>2025-02-04T11:02:26.000Z</time>
      </trkpt>
      <trkpt lat="48.63529" lon="2.21055">
        <ele>150</ele>
        <time>2025-02-04T11:02:42.000Z</time>
      </trkpt>
      <trkpt lat="48.63523" lon="2.21089">
        <ele>150</ele>
        <time>2025-02-04T11:03:00.000Z</time>
      </trkpt>
      <trkpt lat="48.63516" lon="2.21123">
        <ele>149</ele>
        <time>2025-02-04T11:03:16.000Z</time>
      </trkpt>
      <trkpt lat="48.63509" lon="2.21158">
        <ele>147</ele>
        <time>2025-02-04T11:03:34.000Z</time>
      </trkpt>
      <trkpt lat="48.63503" lon="2.21193">
        <ele>146</ele>
        <time>2025-02-04T11:03:50.000Z</time>
      </trkpt>
      <trkpt lat="48.63495" lon="2.21228">
        <ele>145</ele>
        <time>2025-02-04T11:04:08.000Z</time>
      </trkpt>
      <trkpt lat="48.63488" lon="2.2126">
        <ele>144</ele>
        <time>2025-02-04T11:04:25.000Z</time>
      </trkpt>
      <trkpt lat="48.63498" lon="2.21287">
        <ele>143</ele>
        <time>2025-02-04T11:04:50.000Z</time>
      </trkpt>
      <trkpt lat="48.6352" lon="2.21297">
        <ele>142</ele>
        <time>2025-02-04T11:05:10.000Z</time>
      </trkpt>
      <trkpt lat="48.63542" lon="2.21307">
        <ele>142</ele>
        <time>2025-02-04T11:05:30.000Z</time>
      </trkpt>
      <trkpt lat="48.63562" lon="2.21326">
        <ele>141</ele>
        <time>2025-02-04T11:06:04.000Z</time>
      </trkpt>
      <trkpt lat="48.63578" lon="2.21354">
        <ele>140</ele>
        <time>2025-02-04T11:06:41.000Z</time>
      </trkpt>
      <trkpt lat="48.63592" lon="2.21383">
        <ele>140</ele>
        <time>2025-02-04T11:06:58.000Z</time>
      </trkpt>
      <trkpt lat="48.63606" lon="2.21412">
        <ele>139</ele>
        <time>2025-02-04T11:07:15.000Z</time>
      </trkpt>
      <trkpt lat="48.6362" lon="2.21443">
        <ele>139</ele>
        <time>2025-02-04T11:07:33.000Z</time>
      </trkpt>
      <trkpt lat="48.63632" lon="2.21472">
        <ele>139</ele>
        <time>2025-02-04T11:07:49.000Z</time>
      </trkpt>
      <trkpt lat="48.63641" lon="2.21503">
        <ele>138</ele>
        <time>2025-02-04T11:08:05.000Z</time>
      </trkpt>
      <trkpt lat="48.63649" lon="2.21535">
        <ele>137</ele>
        <time>2025-02-04T11:08:21.000Z</time>
      </trkpt>
      <trkpt lat="48.63653" lon="2.21571">
        <ele>137</ele>
        <time>2025-02-04T11:08:39.000Z</time>
      </trkpt>
      <trkpt lat="48.6365" lon="2.21607">
        <ele>137</ele>
        <time>2025-02-04T11:08:55.000Z</time>
      </trkpt>
      <trkpt lat="48.63649" lon="2.21643">
        <ele>137</ele>
        <time>2025-02-04T11:09:11.000Z</time>
      </trkpt>
      <trkpt lat="48.63652" lon="2.21677">
        <ele>138</ele>
        <time>2025-02-04T11:09:27.000Z</time>
      </trkpt>
      <trkpt lat="48.63661" lon="2.21712">
        <ele>138</ele>
        <time>2025-02-04T11:09:44.000Z</time>
      </trkpt>
      <trkpt lat="48.63671" lon="2.21744">
        <ele>138</ele>
        <time>2025-02-04T11:09:59.000Z</time>
      </trkpt>
      <trkpt lat="48.63682" lon="2.21777">
        <ele>138</ele>
        <time>2025-02-04T11:10:17.000Z</time>
      </trkpt>
      <trkpt lat="48.63695" lon="2.21805">
        <ele>138</ele>
        <time>2025-02-04T11:10:33.000Z</time>
      </trkpt>
      <trkpt lat="48.63707" lon="2.21836">
        <ele>138</ele>
        <time>2025-02-04T11:10:51.000Z</time>
      </trkpt>
      <trkpt lat="48.63718" lon="2.21866">
        <ele>138</ele>
        <time>2025-02-04T11:11:09.000Z</time>
      </trkpt>
      <trkpt lat="48.63731" lon="2.21895">
        <ele>138</ele>
        <time>2025-02-04T11:11:25.000Z</time>
      </trkpt>
      <trkpt lat="48.63741" lon="2.21926">
        <ele>138</ele>
        <time>2025-02-04T11:11:43.000Z</time>
      </trkpt>
      <trkpt lat="48.63755" lon="2.21955">
        <ele>138</ele>
        <time>2025-02-04T11:12:11.000Z</time>
      </trkpt>
      <trkpt lat="48.63769" lon="2.21981">
        <ele>137</ele>
        <time>2025-02-04T11:12:31.000Z</time>
      </trkpt>
      <trkpt lat="48.63789" lon="2.21996">
        <ele>137</ele>
        <time>2025-02-04T11:12:51.000Z</time>
      </trkpt>
      <trkpt lat="48.63811" lon="2.22007">
        <ele>137</ele>
        <time>2025-02-04T11:13:09.000Z</time>
      </trkpt>
      <trkpt lat="48.6383" lon="2.22024">
        <ele>137</ele>
        <time>2025-02-04T11:13:27.000Z</time>
      </trkpt>
      <trkpt lat="48.63847" lon="2.2205">
        <ele>136</ele>
        <time>2025-02-04T11:13:47.000Z</time>
      </trkpt>
      <trkpt lat="48.6386" lon="2.22081">
        <ele>135</ele>
        <time>2025-02-04T11:14:07.000Z</time>
      </trkpt>
      <trkpt lat="48.63871" lon="2.22114">
        <ele>135</ele>
        <time>2025-02-04T11:14:23.000Z</time>
      </trkpt>
      <trkpt lat="48.63881" lon="2.22146">
        <ele>134</ele>
        <time>2025-02-04T11:14:41.000Z</time>
      </trkpt>
      <trkpt lat="48.6389" lon="2.2218">
        <ele>134</ele>
        <time>2025-02-04T11:14:59.000Z</time>
      </trkpt>
      <trkpt lat="48.63901" lon="2.22211">
        <ele>134</ele>
        <time>2025-02-04T11:15:16.000Z</time>
      </trkpt>
      <trkpt lat="48.63915" lon="2.22234">
        <ele>134</ele>
        <time>2025-02-04T11:15:35.000Z</time>
      </trkpt>
      <trkpt lat="48.63933" lon="2.22217">
        <ele>134</ele>
        <time>2025-02-04T11:15:53.000Z</time>
      </trkpt>
      <trkpt lat="48.63952" lon="2.22195">
        <ele>134</ele>
        <time>2025-02-04T11:16:13.000Z</time>
      </trkpt>
      <trkpt lat="48.63969" lon="2.22169">
        <ele>134</ele>
        <time>2025-02-04T11:16:31.000Z</time>
      </trkpt>
      <trkpt lat="48.63987" lon="2.22144">
        <ele>134</ele>
        <time>2025-02-04T11:16:47.000Z</time>
      </trkpt>
      <trkpt lat="48.64006" lon="2.22124">
        <ele>134</ele>
        <time>2025-02-04T11:17:05.000Z</time>
      </trkpt>
      <trkpt lat="48.64024" lon="2.22101">
        <ele>135</ele>
        <time>2025-02-04T11:17:21.000Z</time>
      </trkpt>
      <trkpt lat="48.64041" lon="2.22076">
        <ele>134</ele>
        <time>2025-02-04T11:17:38.000Z</time>
      </trkpt>
      <trkpt lat="48.64057" lon="2.22051">
        <ele>134</ele>
        <time>2025-02-04T11:17:57.000Z</time>
      </trkpt>
      <trkpt lat="48.64077" lon="2.22039">
        <ele>134</ele>
        <time>2025-02-04T11:18:15.000Z</time>
      </trkpt>
      <trkpt lat="48.64099" lon="2.22045">
        <ele>133</ele>
        <time>2025-02-04T11:18:33.000Z</time>
      </trkpt>
      <trkpt lat="48.64124" lon="2.22046">
        <ele>133</ele>
        <time>2025-02-04T11:18:53.000Z</time>
      </trkpt>
      <trkpt lat="48.64148" lon="2.22044">
        <ele>133</ele>
        <time>2025-02-04T11:19:19.000Z</time>
      </trkpt>
      <trkpt lat="48.64172" lon="2.22035">
        <ele>133</ele>
        <time>2025-02-04T11:19:47.000Z</time>
      </trkpt>
      <trkpt lat="48.64194" lon="2.22048">
        <ele>131</ele>
        <time>2025-02-04T11:20:13.000Z</time>
      </trkpt>
      <trkpt lat="48.64214" lon="2.22032">
        <ele>133</ele>
        <time>2025-02-04T11:20:45.000Z</time>
      </trkpt>
    </trkseg>
  </trk>
</gpx>